createdAt,value
2022-11-29T00:01:06.134Z,3.72
2022-11-29T00:02:17.785Z,3.70
2022-11-29T00:03:29.544Z,4.10
2022-11-29T00:04:41.187Z,4.65
2022-11-29T00:05:53.384Z,3.70
2022-11-29T00:07:04.873Z,4.07
2022-11-29T00:08:16.356Z,3.80
2022-11-29T00:09:27.872Z,4.22
2022-11-29T00:10:39.336Z,5.65
2022-11-29T00:12:09.613Z,5.10
2022-11-29T00:13:21.050Z,4.65
2022-11-29T00:14:32.526Z,4.18
2022-11-29T00:15:44.053Z,3.95
2022-11-29T00:16:57.210Z,3.90
2022-11-29T00:18:08.932Z,3.60
2022-11-29T00:19:20.797Z,4.68
2022-11-29T00:20:33.080Z,4.28
2022-11-29T00:21:44.535Z,4.43
2022-11-29T00:22:56.013Z,4.18
2022-11-29T00:24:07.943Z,3.47
2022-11-29T00:25:20.312Z,5.15
2022-11-29T00:26:32.021Z,6.28
2022-11-29T00:27:43.467Z,9.23
2022-11-29T00:28:55.106Z,8.50
2022-11-29T00:30:06.925Z,7.40
2022-11-29T00:31:19.844Z,6.72
2022-11-29T00:32:31.262Z,6.15
2022-11-29T00:33:42.812Z,6.43
2022-11-29T00:34:55.058Z,5.53
2022-11-29T00:36:08.740Z,5.78
2022-11-29T00:37:20.215Z,6.25
2022-11-29T00:38:31.678Z,7.45
2022-11-29T00:39:43.144Z,5.60
2022-11-29T00:40:54.635Z,8.00
2022-11-29T00:42:06.213Z,6.53
2022-11-29T00:43:17.699Z,8.25
2022-11-29T00:44:29.151Z,6.68
2022-11-29T00:45:40.600Z,8.18
2022-11-29T00:46:52.061Z,7.47
2022-11-29T00:48:03.555Z,8.75
2022-11-29T00:49:15.092Z,8.73
2022-11-29T00:50:26.548Z,6.30
2022-11-29T00:51:38.016Z,5.78
2022-11-29T00:52:49.733Z,5.07
2022-11-29T00:54:01.153Z,5.22
2022-11-29T00:55:12.565Z,5.22
2022-11-29T00:56:24.316Z,5.38
2022-11-29T00:57:35.765Z,5.13
2022-11-29T00:58:48.656Z,5.40
2022-11-29T01:00:00.136Z,5.05
2022-11-29T01:01:11.883Z,5.53
2022-11-29T01:02:23.423Z,5.30
2022-11-29T01:03:34.925Z,3.67
2022-11-29T01:04:46.738Z,4.05
2022-11-29T01:06:05.591Z,5.03
2022-11-29T01:07:17.125Z,5.15
2022-11-29T01:08:28.729Z,4.75
2022-11-29T01:09:40.227Z,4.95
2022-11-29T01:11:00.783Z,4.47
2022-11-29T01:12:12.319Z,3.25
2022-11-29T01:13:23.784Z,4.78
2022-11-29T01:14:35.717Z,3.47
2022-11-29T01:15:54.813Z,3.97
2022-11-29T01:17:06.302Z,4.30
2022-11-29T01:18:17.755Z,3.47
2022-11-29T01:19:29.181Z,4.47
2022-11-29T01:20:40.623Z,3.70
2022-11-29T01:21:52.097Z,3.80
2022-11-29T01:23:03.560Z,3.75
2022-11-29T01:24:15.062Z,3.80
2022-11-29T01:25:26.545Z,4.05
2022-11-29T01:26:38.162Z,3.10
2022-11-29T01:27:49.595Z,3.00
2022-11-29T01:29:01.045Z,4.32
2022-11-29T01:30:12.636Z,3.55
2022-11-29T01:31:25.361Z,3.50
2022-11-29T01:32:37.219Z,2.95
2022-11-29T01:33:48.827Z,3.60
2022-11-29T01:35:00.252Z,2.95
2022-11-29T01:36:12.791Z,2.72
2022-11-29T01:37:24.336Z,3.65
2022-11-29T01:38:36.225Z,3.47
2022-11-29T01:39:47.633Z,3.78
2022-11-29T01:41:28.244Z,3.33
2022-11-29T01:42:39.650Z,3.58
2022-11-29T01:43:54.257Z,3.28
2022-11-29T01:45:08.072Z,3.40
2022-11-29T01:46:19.619Z,2.83
2022-11-29T01:47:31.533Z,3.45
2022-11-29T01:48:42.973Z,4.28
2022-11-29T01:49:54.449Z,3.38
2022-11-29T01:51:05.938Z,3.80
2022-11-29T01:52:28.462Z,2.95
2022-11-29T01:53:40.096Z,3.55
2022-11-29T01:54:54.372Z,3.70
2022-11-29T01:56:06.351Z,3.88
2022-11-29T01:57:18.622Z,4.03
2022-11-29T01:58:30.321Z,3.17
2022-11-29T01:59:46.708Z,4.30
2022-11-29T02:00:58.979Z,3.40
2022-11-29T02:02:12.717Z,3.67
2022-11-29T02:03:24.674Z,3.88
2022-11-29T02:04:36.505Z,4.03
2022-11-29T02:05:50.251Z,3.53
2022-11-29T02:07:01.920Z,5.35
2022-11-29T02:08:14.324Z,4.93
2022-11-29T02:09:25.752Z,4.70
2022-11-29T02:10:49.105Z,4.10
2022-11-29T02:12:17.064Z,4.88
2022-11-29T02:13:37.347Z,3.03
2022-11-29T02:14:48.786Z,3.63
2022-11-29T02:16:04.886Z,4.70
2022-11-29T02:17:20.980Z,4.60
2022-11-29T02:18:32.394Z,4.38
2022-11-29T02:20:02.426Z,3.22
2022-11-29T02:21:13.838Z,4.03
2022-11-29T02:22:30.361Z,4.45
2022-11-29T02:23:58.977Z,4.00
2022-11-29T02:25:29.013Z,4.07
2022-11-29T02:26:52.847Z,3.38
2022-11-29T02:28:23.004Z,4.43
2022-11-29T02:29:52.979Z,4.55
2022-11-29T02:31:16.435Z,4.30
2022-11-29T02:32:50.954Z,3.72
2022-11-29T02:34:02.423Z,4.22
2022-11-29T02:35:32.461Z,4.30
2022-11-29T02:36:49.356Z,3.67
2022-11-29T02:38:00.812Z,3.35
2022-11-29T02:39:30.860Z,3.35
2022-11-29T02:40:48.272Z,3.45
2022-11-29T02:42:11.713Z,2.80
2022-11-29T02:43:41.879Z,3.33
2022-11-29T02:45:05.541Z,3.95
2022-11-29T02:46:26.123Z,3.13
2022-11-29T02:47:40.310Z,17.73
2022-11-29T02:49:07.592Z,15.48
2022-11-29T02:50:19.115Z,10.40
2022-11-29T02:51:36.335Z,5.35
2022-11-29T02:52:55.027Z,5.68
2022-11-29T02:54:06.541Z,4.32
2022-11-29T02:55:41.010Z,5.65
2022-11-29T02:56:58.712Z,3.58
2022-11-29T02:58:10.176Z,3.17
2022-11-29T02:59:50.748Z,3.20
2022-11-29T03:01:05.120Z,3.78
2022-11-29T03:02:32.445Z,3.65
2022-11-29T03:04:04.220Z,3.00
2022-11-29T03:05:29.288Z,3.70
2022-11-29T03:06:40.726Z,3.63
2022-11-29T03:07:52.176Z,2.97
2022-11-29T03:09:26.750Z,3.72
2022-11-29T03:10:38.178Z,3.35
2022-11-29T03:11:58.145Z,2.72
2022-11-29T03:13:14.792Z,3.42
2022-11-29T03:14:27.898Z,3.33
2022-11-29T03:15:45.663Z,5.28
2022-11-29T03:17:05.949Z,4.40
2022-11-29T03:18:20.507Z,3.63
2022-11-29T03:19:50.699Z,3.90
2022-11-29T03:21:08.425Z,5.18
2022-11-29T03:22:26.695Z,3.55
2022-11-29T03:23:43.367Z,3.90
2022-11-29T03:24:59.234Z,4.03
2022-11-29T03:26:13.845Z,5.18
2022-11-29T03:27:47.624Z,4.22
2022-11-29T03:29:19.286Z,4.60
2022-11-29T03:30:32.777Z,4.07
2022-11-29T03:31:50.480Z,4.80
2022-11-29T03:33:05.104Z,4.90
2022-11-29T03:34:16.706Z,4.95
2022-11-29T03:35:50.560Z,4.13
2022-11-29T03:37:15.651Z,4.63
2022-11-29T03:38:29.851Z,5.22
2022-11-29T03:39:44.253Z,4.18
2022-11-29T03:41:00.670Z,4.95
2022-11-29T03:42:17.716Z,4.43
2022-11-29T03:43:52.279Z,4.97
2022-11-29T03:45:21.904Z,4.75
2022-11-29T03:46:37.134Z,7.78
2022-11-29T03:47:56.491Z,8.57
2022-11-29T03:49:13.466Z,5.97
2022-11-29T03:50:32.553Z,5.97
2022-11-29T03:51:54.715Z,5.45
2022-11-29T03:53:15.274Z,7.18
2022-11-29T03:54:32.438Z,10.15
2022-11-29T03:55:49.810Z,9.43
2022-11-29T03:57:01.407Z,8.18
2022-11-29T03:58:27.753Z,6.55
2022-11-29T03:59:51.793Z,5.43
2022-11-29T04:01:18.219Z,5.72
2022-11-29T04:02:40.145Z,5.70
2022-11-29T04:04:06.573Z,6.18
2022-11-29T04:05:18.003Z,6.38
2022-11-29T04:06:44.764Z,6.07
2022-11-29T04:08:02.203Z,5.50
2022-11-29T04:09:22.752Z,7.07
2022-11-29T04:10:46.344Z,6.40
2022-11-29T04:12:08.773Z,5.43
2022-11-29T04:13:32.379Z,6.20
2022-11-29T04:14:44.062Z,5.78
2022-11-29T04:16:07.744Z,6.32
2022-11-29T04:17:37.776Z,6.30
2022-11-29T04:18:49.170Z,6.28
2022-11-29T04:20:10.488Z,5.97
2022-11-29T04:21:24.653Z,6.63
2022-11-29T04:22:48.229Z,22.00
2022-11-29T04:24:17.992Z,24.48
2022-11-29T04:25:45.785Z,40.33
2022-11-29T04:27:12.293Z,12.48
2022-11-29T04:28:23.756Z,8.63
2022-11-29T04:29:59.527Z,9.23
2022-11-29T04:31:23.134Z,7.78
2022-11-29T04:32:40.439Z,7.35
2022-11-29T04:33:57.672Z,10.52
2022-11-29T04:35:24.463Z,12.90
2022-11-29T04:36:54.328Z,10.27
2022-11-29T04:38:38.343Z,9.73
2022-11-29T04:39:50.013Z,6.60
2022-11-29T04:41:01.463Z,7.20
2022-11-29T04:42:12.916Z,7.70
2022-11-29T04:43:42.282Z,6.60
2022-11-29T04:45:12.248Z,4.72
2022-11-29T04:46:42.195Z,6.03
2022-11-29T04:48:10.380Z,6.53
2022-11-29T04:49:21.847Z,8.45
2022-11-29T04:50:45.599Z,10.77
2022-11-29T04:52:05.254Z,7.25
2022-11-29T04:53:16.696Z,10.43
2022-11-29T04:54:33.983Z,12.05
2022-11-29T04:56:03.915Z,13.05
2022-11-29T04:57:24.643Z,44.25
2022-11-29T04:58:54.892Z,46.47
2022-11-29T05:00:10.888Z,42.63
2022-11-29T05:01:22.577Z,50.72
2022-11-29T05:02:34.185Z,48.95
2022-11-29T05:03:56.939Z,47.33
2022-11-29T05:05:27.287Z,46.03
2022-11-29T05:06:56.901Z,38.13
2022-11-29T05:08:27.086Z,32.65
2022-11-29T05:09:44.797Z,27.40
2022-11-29T05:11:03.048Z,28.60
2022-11-29T05:12:28.920Z,23.63
2022-11-29T05:13:59.002Z,12.32
2022-11-29T05:15:16.606Z,13.48
2022-11-29T05:16:34.149Z,12.45
2022-11-29T05:17:45.537Z,10.07
2022-11-29T05:19:16.195Z,8.60
2022-11-29T05:20:36.728Z,11.52
2022-11-29T05:22:00.356Z,22.55
2022-11-29T05:23:30.703Z,17.23
2022-11-29T05:25:00.723Z,13.57
2022-11-29T05:26:19.451Z,12.88
2022-11-29T05:27:48.444Z,14.60
2022-11-29T05:29:03.303Z,12.70
2022-11-29T05:30:17.781Z,12.57
2022-11-29T05:31:29.256Z,9.48
2022-11-29T05:32:52.634Z,10.45
2022-11-29T05:34:22.812Z,11.73
2022-11-29T05:35:40.298Z,13.07
2022-11-29T05:37:01.282Z,14.88
2022-11-29T05:38:12.715Z,11.77
2022-11-29T05:39:32.776Z,9.88
2022-11-29T05:40:48.547Z,16.45
2022-11-29T05:42:26.421Z,32.22
2022-11-29T05:43:56.556Z,37.70
2022-11-29T05:45:20.176Z,23.80
2022-11-29T05:46:53.642Z,21.23
2022-11-29T05:48:17.470Z,20.58
2022-11-29T05:49:47.733Z,14.18
2022-11-29T05:51:11.436Z,12.32
2022-11-29T05:52:55.353Z,11.98
2022-11-29T05:54:09.733Z,12.13
2022-11-29T05:55:45.047Z,13.95
2022-11-29T05:57:10.685Z,15.30
2022-11-29T05:58:27.085Z,15.02
2022-11-29T05:59:41.954Z,16.00
2022-11-29T06:01:05.570Z,14.95
2022-11-29T06:02:23.371Z,16.52
2022-11-29T06:03:41.181Z,16.30
2022-11-29T06:04:52.726Z,15.85
2022-11-29T06:06:14.464Z,21.80
2022-11-29T06:07:41.064Z,25.70
2022-11-29T06:08:57.158Z,26.63
2022-11-29T06:10:13.582Z,24.35
2022-11-29T06:11:29.788Z,27.42
2022-11-29T06:12:42.673Z,25.05
2022-11-29T06:13:57.073Z,19.58
2022-11-29T06:15:29.134Z,19.33
2022-11-29T06:16:59.175Z,20.27
2022-11-29T06:18:10.704Z,20.38
2022-11-29T06:19:49.161Z,21.30
2022-11-29T06:21:22.273Z,18.92
2022-11-29T06:22:52.287Z,20.90
2022-11-29T06:24:06.754Z,18.58
2022-11-29T06:25:41.027Z,18.52
2022-11-29T06:26:55.253Z,18.85
2022-11-29T06:28:24.919Z,19.17
2022-11-29T06:29:39.571Z,19.55
2022-11-29T06:31:05.052Z,23.05
2022-11-29T06:32:36.153Z,20.17
2022-11-29T06:34:07.629Z,26.20
2022-11-29T06:35:28.319Z,40.58
2022-11-29T06:36:51.977Z,49.05
2022-11-29T06:38:08.335Z,47.63
2022-11-29T06:39:20.023Z,46.15
2022-11-29T06:40:31.668Z,42.75
2022-11-29T06:41:43.171Z,43.33
2022-11-29T06:42:54.625Z,36.58
2022-11-29T06:44:06.270Z,32.13
2022-11-29T06:45:17.968Z,26.33
2022-11-29T06:46:32.262Z,22.30
2022-11-29T06:47:45.048Z,26.23
2022-11-29T06:49:09.928Z,27.15
2022-11-29T06:50:27.514Z,39.35
2022-11-29T06:51:41.953Z,60.90
2022-11-29T06:52:58.412Z,63.55
2022-11-29T06:54:18.704Z,52.25
2022-11-29T06:55:43.728Z,49.90
2022-11-29T06:57:00.773Z,48.17
2022-11-29T06:58:15.176Z,53.28
2022-11-29T06:59:29.594Z,46.92
2022-11-29T07:00:41.077Z,45.13
2022-11-29T07:01:55.469Z,39.10
2022-11-29T07:03:18.647Z,32.78
2022-11-29T07:04:45.421Z,36.22
2022-11-29T07:05:58.139Z,36.25
2022-11-29T07:07:14.505Z,33.72
2022-11-29T07:08:26.352Z,31.50
2022-11-29T07:09:37.883Z,24.13
2022-11-29T07:10:51.440Z,25.70
2022-11-29T07:12:03.049Z,18.05
2022-11-29T07:13:14.544Z,22.10
2022-11-29T07:14:26.189Z,11.15
2022-11-29T07:15:38.604Z,10.45
2022-11-29T07:17:04.133Z,6.55
2022-11-29T07:18:21.414Z,6.15
2022-11-29T07:19:33.005Z,7.97
2022-11-29T07:20:47.589Z,7.68
2022-11-29T07:22:19.264Z,6.93
2022-11-29T07:23:35.488Z,7.60
2022-11-29T07:24:56.994Z,8.82
2022-11-29T07:26:11.234Z,5.95
2022-11-29T07:27:25.790Z,6.25
2022-11-29T07:28:55.739Z,5.95
2022-11-29T07:30:12.699Z,8.35
2022-11-29T07:31:53.321Z,7.57
2022-11-29T07:33:07.566Z,6.20
2022-11-29T07:34:18.958Z,6.35
2022-11-29T07:35:36.614Z,7.68
2022-11-29T07:36:48.088Z,7.60
2022-11-29T07:38:04.863Z,9.02
2022-11-29T07:39:25.449Z,11.05
2022-11-29T07:40:49.281Z,10.25
2022-11-29T07:42:06.609Z,10.02
2022-11-29T07:43:33.036Z,12.23
2022-11-29T07:44:44.716Z,13.05
2022-11-29T07:45:57.052Z,13.32
2022-11-29T07:47:09.148Z,15.50
2022-11-29T07:48:20.686Z,13.95
2022-11-29T07:49:32.153Z,13.13
2022-11-29T07:50:44.187Z,11.32
2022-11-29T07:51:56.169Z,11.15
2022-11-29T07:53:09.376Z,6.88
2022-11-29T07:54:22.166Z,5.93
2022-11-29T07:55:35.134Z,5.78
2022-11-29T07:56:46.850Z,6.97
2022-11-29T07:57:58.320Z,8.27
2022-11-29T07:59:12.938Z,9.40
2022-11-29T08:00:24.508Z,10.88
2022-11-29T08:01:36.021Z,9.23
2022-11-29T08:02:48.315Z,9.30
2022-11-29T08:03:59.754Z,6.00
2022-11-29T08:05:11.517Z,6.38
2022-11-29T08:06:26.449Z,6.85
2022-11-29T08:07:38.624Z,6.50
2022-11-29T08:08:50.116Z,6.80
2022-11-29T08:10:02.051Z,8.10
2022-11-29T08:11:13.523Z,9.38
2022-11-29T08:12:24.974Z,7.80
2022-11-29T08:13:36.608Z,7.30
2022-11-29T08:14:48.249Z,9.88
2022-11-29T08:15:59.904Z,7.85
2022-11-29T08:17:11.372Z,8.60
2022-11-29T08:18:22.809Z,10.75
2022-11-29T08:19:34.332Z,9.95
2022-11-29T08:20:46.416Z,12.90
2022-11-29T08:21:57.934Z,19.15
2022-11-29T08:23:10.919Z,17.25
2022-11-29T08:24:22.534Z,16.42
2022-11-29T08:25:33.983Z,15.32
2022-11-29T08:26:45.444Z,14.52
2022-11-29T08:27:56.933Z,13.85
2022-11-29T08:29:08.353Z,14.65
2022-11-29T08:30:22.284Z,26.35
2022-11-29T08:31:34.070Z,19.88
2022-11-29T08:32:51.100Z,40.97
2022-11-29T08:34:04.834Z,24.13
2022-11-29T08:35:17.034Z,21.75
2022-11-29T08:36:28.508Z,18.98
2022-11-29T08:37:39.963Z,16.10
2022-11-29T08:38:57.154Z,54.85
2022-11-29T08:40:13.681Z,20.33
2022-11-29T08:41:25.129Z,9.10
2022-11-29T08:42:36.800Z,8.10
2022-11-29T08:43:48.330Z,15.27
2022-11-29T08:44:59.859Z,29.25
2022-11-29T08:46:16.705Z,49.28
2022-11-29T08:47:35.867Z,11.48
2022-11-29T08:48:47.914Z,6.38
2022-11-29T08:50:02.046Z,8.35
2022-11-29T08:51:13.843Z,6.57
2022-11-29T08:52:43.924Z,7.03
2022-11-29T08:53:55.360Z,15.38
2022-11-29T08:55:07.000Z,11.15
2022-11-29T08:57:51.496Z,20.35
2022-11-29T08:59:03.749Z,15.23
2022-11-29T09:00:15.807Z,7.50
2022-11-29T09:01:27.445Z,6.82
2022-11-29T09:02:39.004Z,11.32
2022-11-29T09:04:07.786Z,14.95
2022-11-29T09:05:19.413Z,12.48
2022-11-29T09:06:32.073Z,10.27
2022-11-29T09:07:43.668Z,8.18
2022-11-29T09:08:56.525Z,6.88
2022-11-29T09:10:09.381Z,7.57
2022-11-29T09:11:22.206Z,7.75
2022-11-29T09:12:34.275Z,7.45
2022-11-29T09:13:46.787Z,6.75
2022-11-29T09:14:58.671Z,7.18
2022-11-29T09:16:11.610Z,5.38
2022-11-29T09:17:23.080Z,6.80
2022-11-29T09:18:34.535Z,7.05
2022-11-29T09:19:46.006Z,7.43
2022-11-29T09:20:57.547Z,6.45
2022-11-29T09:22:09.191Z,7.15
2022-11-29T09:23:20.637Z,6.57
2022-11-29T09:24:33.441Z,7.88
2022-11-29T09:25:48.553Z,7.13
2022-11-29T09:27:00.080Z,6.10
2022-11-29T09:28:12.647Z,7.85
2022-11-29T09:29:24.049Z,9.05
2022-11-29T09:30:37.993Z,7.82
2022-11-29T09:31:49.572Z,8.57
2022-11-29T09:33:02.846Z,9.13
2022-11-29T09:34:15.064Z,8.00
2022-11-29T09:35:26.545Z,7.78
2022-11-29T09:36:38.053Z,7.32
2022-11-29T09:37:49.517Z,7.63
2022-11-29T09:39:02.856Z,7.97
2022-11-29T09:40:19.666Z,7.82
2022-11-29T09:41:49.657Z,9.18
2022-11-29T09:43:06.375Z,10.15
2022-11-29T09:44:36.251Z,14.40
2022-11-29T09:45:49.311Z,12.68
2022-11-29T09:47:08.373Z,8.07
2022-11-29T09:48:22.899Z,8.45
2022-11-29T09:49:37.546Z,8.05
2022-11-29T09:50:54.070Z,8.63
2022-11-29T09:52:12.046Z,5.82
2022-11-29T09:53:35.958Z,4.82
2022-11-29T09:55:10.818Z,7.47
2022-11-29T09:56:27.058Z,6.10
2022-11-29T09:57:38.715Z,8.45
2022-11-29T09:58:50.138Z,7.38
2022-11-29T10:00:07.004Z,6.72
2022-11-29T10:01:22.154Z,6.68
2022-11-29T10:02:56.593Z,6.97
2022-11-29T10:04:13.983Z,7.05
2022-11-29T10:05:31.456Z,7.15
2022-11-29T10:06:51.784Z,17.65
2022-11-29T10:08:06.128Z,10.13
2022-11-29T10:09:33.725Z,13.65
2022-11-29T10:10:49.171Z,8.75
2022-11-29T10:12:05.292Z,6.85
2022-11-29T10:13:26.055Z,6.25
2022-11-29T10:14:44.049Z,5.65
2022-11-29T10:16:06.706Z,9.32
2022-11-29T10:17:21.217Z,7.30
2022-11-29T10:18:34.712Z,10.93
2022-11-29T10:19:50.772Z,13.82
2022-11-29T10:21:10.252Z,20.35
2022-11-29T10:22:27.896Z,21.10
2022-11-29T10:23:43.140Z,25.85
2022-11-29T10:24:57.467Z,17.15
2022-11-29T10:26:11.192Z,16.30
2022-11-29T10:27:24.907Z,14.88
2022-11-29T10:28:37.410Z,5.60
2022-11-29T10:29:51.202Z,5.22
2022-11-29T10:31:13.074Z,10.68
2022-11-29T10:32:25.549Z,8.68
2022-11-29T10:33:40.264Z,11.02
2022-11-29T10:34:51.994Z,94.78
2022-11-29T10:36:04.997Z,56.45
2022-11-29T10:37:17.945Z,22.73
2022-11-29T10:38:31.167Z,9.55
2022-11-29T10:40:12.403Z,8.18
2022-11-29T10:41:23.964Z,6.95
2022-11-29T10:42:52.400Z,4.75
2022-11-29T10:44:04.011Z,9.18
2022-11-29T10:45:38.997Z,6.18
2022-11-29T10:46:50.913Z,14.23
2022-11-29T10:48:04.088Z,4.10
2022-11-29T10:49:17.739Z,4.63
2022-11-29T10:50:30.757Z,4.30
2022-11-29T10:51:42.759Z,4.85
2022-11-29T10:52:59.934Z,4.25
2022-11-29T10:54:34.945Z,5.07
2022-11-29T10:55:46.450Z,5.47
2022-11-29T10:57:00.011Z,7.40
2022-11-29T10:58:13.585Z,14.48
2022-11-29T10:59:26.905Z,7.57
2022-11-29T11:00:44.553Z,5.63
2022-11-29T11:01:56.210Z,5.13
2022-11-29T11:03:37.006Z,6.43
2022-11-29T11:04:50.108Z,13.82
2022-11-29T11:06:07.803Z,6.05
2022-11-29T11:07:39.719Z,8.68
2022-11-29T11:09:12.228Z,25.70
2022-11-29T11:10:27.990Z,7.93
2022-11-29T11:11:39.989Z,6.63
2022-11-29T11:13:05.331Z,10.27
2022-11-29T11:14:22.303Z,20.40
2022-11-29T11:15:33.981Z,4.60
2022-11-29T11:16:45.738Z,3.42
2022-11-29T11:17:59.589Z,5.22
2022-11-29T11:19:30.977Z,4.10
2022-11-29T11:20:43.843Z,8.40
2022-11-29T11:21:56.436Z,13.98
2022-11-29T11:23:20.835Z,4.07
2022-11-29T11:24:42.128Z,34.72
2022-11-29T11:25:58.008Z,10.32
2022-11-29T11:27:09.825Z,3.85
2022-11-29T11:28:22.882Z,3.08
2022-11-29T11:29:42.318Z,3.13
2022-11-29T11:31:05.734Z,2.78
2022-11-29T11:32:18.759Z,3.75
2022-11-29T11:33:30.253Z,3.63
2022-11-29T11:34:50.483Z,5.38
2022-11-29T11:36:05.107Z,6.20
2022-11-29T11:37:29.937Z,4.40
2022-11-29T11:38:49.310Z,4.75
2022-11-29T11:40:17.934Z,4.60
2022-11-29T11:41:49.288Z,4.82
2022-11-29T11:43:02.379Z,4.95
2022-11-29T11:44:49.709Z,8.50
2022-11-29T11:46:01.784Z,6.28
2022-11-29T11:47:15.538Z,5.38
2022-11-29T11:48:27.287Z,6.13
2022-11-29T11:49:48.169Z,5.75
2022-11-29T11:51:00.658Z,6.90
2022-11-29T11:52:37.066Z,6.40
2022-11-29T11:53:56.889Z,7.15
2022-11-29T11:55:27.318Z,6.25
2022-11-29T11:56:38.946Z,4.50
2022-11-29T11:58:03.396Z,5.25
2022-11-29T11:59:21.377Z,5.05
2022-11-29T12:02:24.704Z,4.35
2022-11-29T12:03:55.289Z,7.57
2022-11-29T12:05:12.044Z,10.00
2022-11-29T12:06:23.525Z,7.30
2022-11-29T12:08:07.175Z,7.07
2022-11-29T12:09:19.483Z,6.10
2022-11-29T12:10:32.471Z,5.53
2022-11-29T12:11:51.496Z,6.25
2022-11-29T12:13:04.080Z,5.45
2022-11-29T12:14:22.495Z,5.55
2022-11-29T12:15:38.663Z,7.25
2022-11-29T12:16:52.919Z,10.48
2022-11-29T12:18:08.531Z,11.57
2022-11-29T12:19:25.330Z,14.13
2022-11-29T12:20:36.725Z,7.85
2022-11-29T12:21:52.589Z,6.97
2022-11-29T12:23:19.486Z,3.80
2022-11-29T12:24:37.997Z,6.00
2022-11-29T12:25:52.144Z,4.70
2022-11-29T12:27:04.661Z,5.20
2022-11-29T12:28:20.404Z,6.15
2022-11-29T12:29:33.678Z,8.15
2022-11-29T12:30:53.771Z,5.22
2022-11-29T12:32:11.281Z,7.25
2022-11-29T12:33:34.741Z,5.20
2022-11-29T12:35:06.452Z,3.97
2022-11-29T12:36:18.583Z,6.55
2022-11-29T12:37:30.095Z,4.55
2022-11-29T12:38:59.946Z,6.00
2022-11-29T12:40:20.977Z,7.45
2022-11-29T12:41:50.912Z,7.45
2022-11-29T12:43:28.514Z,6.75
2022-11-29T12:44:40.606Z,6.72
2022-11-29T12:45:52.040Z,5.53
2022-11-29T12:47:34.521Z,6.68
2022-11-29T12:48:42.724Z,6.18
2022-11-29T12:49:54.246Z,6.90
2022-11-29T12:51:11.746Z,7.85
2022-11-29T12:52:26.179Z,7.20
2022-11-29T12:53:44.386Z,5.97
2022-11-29T12:55:08.217Z,6.30
2022-11-29T12:56:42.778Z,5.40
2022-11-29T12:57:57.076Z,4.45
2022-11-29T12:59:22.834Z,4.55
2022-11-29T13:00:53.101Z,5.85
2022-11-29T13:02:10.804Z,5.88
2022-11-29T13:03:41.383Z,6.68
2022-11-29T13:04:59.988Z,4.45
2022-11-29T13:06:12.447Z,6.00
2022-11-29T13:07:24.047Z,6.78
2022-11-29T13:08:49.578Z,7.00
2022-11-29T13:10:21.383Z,5.45
2022-11-29T13:11:38.723Z,5.75
2022-11-29T13:13:10.465Z,6.97
2022-11-29T13:14:42.578Z,6.10
2022-11-29T13:15:59.546Z,10.45
2022-11-29T13:17:23.920Z,12.02
2022-11-29T13:18:39.796Z,9.95
2022-11-29T13:19:53.821Z,10.35
2022-11-29T13:21:13.064Z,8.68
2022-11-29T13:22:27.323Z,10.15
2022-11-29T13:25:30.731Z,4.80
2022-11-29T13:26:43.569Z,5.10
2022-11-29T13:27:58.372Z,5.55
2022-11-29T13:29:14.906Z,4.07
2022-11-29T13:30:26.407Z,4.03
2022-11-29T13:31:38.873Z,3.50
2022-11-29T13:32:54.503Z,4.75
2022-11-29T13:34:18.155Z,5.70
2022-11-29T13:35:35.435Z,4.05
2022-11-29T13:36:49.902Z,6.55
2022-11-29T13:38:08.482Z,8.10
2022-11-29T13:39:25.954Z,8.00
2022-11-29T13:40:38.642Z,9.38
2022-11-29T13:42:10.388Z,13.30
2022-11-29T13:43:33.156Z,13.70
2022-11-29T13:44:58.968Z,13.90
2022-11-29T13:46:30.130Z,12.27
2022-11-29T13:47:48.947Z,8.60
2022-11-29T13:49:00.564Z,9.07
2022-11-29T13:50:31.065Z,7.05
2022-11-29T13:51:42.702Z,5.57
2022-11-29T13:53:02.529Z,7.35
2022-11-29T13:54:33.145Z,10.18
2022-11-29T13:55:45.931Z,10.35
2022-11-29T13:57:07.959Z,11.05
2022-11-29T13:58:32.279Z,10.23
2022-11-29T13:59:48.416Z,12.15
2022-11-29T14:01:07.152Z,10.20
2022-11-29T14:02:36.968Z,10.95
2022-11-29T14:04:02.312Z,6.90
2022-11-29T14:05:27.613Z,5.68
2022-11-29T14:06:39.225Z,7.60
2022-11-29T14:08:11.767Z,7.20
2022-11-29T14:09:31.566Z,12.02
2022-11-29T14:10:47.909Z,11.82
2022-11-29T14:11:59.455Z,11.45
2022-11-29T14:13:14.434Z,13.43
2022-11-29T14:14:29.270Z,14.68
2022-11-29T14:15:42.074Z,16.20
2022-11-29T14:16:57.770Z,18.08
2022-11-29T14:18:29.194Z,20.38
2022-11-29T14:19:40.709Z,20.13
2022-11-29T14:20:55.953Z,18.08
2022-11-29T14:22:18.300Z,13.93
2022-11-29T14:23:31.795Z,13.10
2022-11-29T14:24:54.888Z,13.63
2022-11-29T14:26:06.278Z,11.55
2022-11-29T14:27:20.693Z,11.43
2022-11-29T14:28:33.818Z,8.80
2022-11-29T14:29:48.823Z,9.32
2022-11-29T14:31:03.657Z,7.82
2022-11-29T14:32:33.675Z,7.85
2022-11-29T14:34:03.625Z,7.40
2022-11-29T14:35:19.181Z,8.93
2022-11-29T14:36:30.596Z,9.25
2022-11-29T14:37:45.219Z,7.43
2022-11-29T14:38:56.736Z,8.73
2022-11-29T14:40:37.415Z,9.18
2022-11-29T14:42:07.952Z,9.85
2022-11-29T14:43:22.392Z,11.82
2022-11-29T14:44:34.700Z,12.70
2022-11-29T14:45:46.218Z,13.50
2022-11-29T14:47:13.835Z,13.95
2022-11-29T14:48:30.272Z,15.07
2022-11-29T14:49:42.644Z,19.40
2022-11-29T14:51:13.017Z,17.67
2022-11-29T14:52:27.402Z,18.23
2022-11-29T14:53:39.817Z,20.27
2022-11-29T14:54:54.602Z,20.30
2022-11-29T14:56:25.235Z,19.20
2022-11-29T14:57:55.283Z,14.80
2022-11-29T14:59:25.279Z,13.20
2022-11-29T15:00:39.779Z,13.70
2022-11-29T15:01:51.375Z,10.98
2022-11-29T15:03:27.086Z,11.07
2022-11-29T15:04:38.854Z,8.55
2022-11-29T15:06:01.216Z,9.73
2022-11-29T15:07:18.314Z,9.48
2022-11-29T15:08:40.793Z,6.90
2022-11-29T15:09:54.980Z,6.60
2022-11-29T15:11:12.438Z,7.00
2022-11-29T15:12:37.113Z,7.60
2022-11-29T15:14:14.985Z,10.73
2022-11-29T15:15:26.396Z,11.93
2022-11-29T15:16:47.402Z,11.95
2022-11-29T15:18:07.873Z,10.38
2022-11-29T15:19:37.860Z,10.65
2022-11-29T15:21:08.130Z,13.38
2022-11-29T15:22:26.577Z,14.90
2022-11-29T15:23:42.951Z,18.30
2022-11-29T15:25:00.135Z,13.15
2022-11-29T15:26:19.829Z,11.27
2022-11-29T15:27:31.318Z,12.85
2022-11-29T15:28:42.848Z,17.58
2022-11-29T15:29:54.808Z,13.60
2022-11-29T15:31:07.882Z,11.55
2022-11-29T15:32:19.502Z,15.70
2022-11-29T15:33:31.657Z,15.05
2022-11-29T15:34:48.278Z,16.15
2022-11-29T15:36:06.429Z,16.25
2022-11-29T15:37:23.149Z,9.90
2022-11-29T15:38:48.402Z,13.45
2022-11-29T15:40:05.038Z,13.52
2022-11-29T15:41:21.345Z,19.15
2022-11-29T15:42:49.065Z,14.68
2022-11-29T15:44:05.680Z,17.60
2022-11-29T15:45:36.569Z,14.73
2022-11-29T15:46:48.955Z,14.75
2022-11-29T15:48:11.500Z,13.70
2022-11-29T15:49:27.559Z,16.58
2022-11-29T15:50:41.393Z,23.42
2022-11-29T15:51:59.223Z,22.25
2022-11-29T15:53:14.476Z,20.05
2022-11-29T15:54:33.374Z,19.08
2022-11-29T15:55:46.409Z,22.17
2022-11-29T15:57:04.343Z,28.80
2022-11-29T15:58:17.063Z,25.20
2022-11-29T15:59:32.345Z,24.35
2022-11-29T16:00:47.047Z,23.75
2022-11-29T16:02:01.478Z,26.80
2022-11-29T16:03:18.413Z,24.85
2022-11-29T16:04:31.241Z,24.52
2022-11-29T16:05:42.885Z,22.73
2022-11-29T16:06:55.273Z,22.33
2022-11-29T16:08:13.107Z,22.17
2022-11-29T16:09:36.929Z,18.75
2022-11-29T16:10:51.610Z,17.77
2022-11-29T16:12:03.246Z,16.27
2022-11-29T16:13:26.971Z,14.18
2022-11-29T16:14:48.422Z,17.65
2022-11-29T16:16:17.045Z,19.67
2022-11-29T16:17:32.925Z,18.85
2022-11-29T16:18:45.502Z,17.65
2022-11-29T16:20:06.172Z,20.90
2022-11-29T16:21:24.969Z,22.75
2022-11-29T16:22:36.485Z,21.45
2022-11-29T16:23:48.023Z,22.10
2022-11-29T16:25:04.461Z,22.50
2022-11-29T16:26:34.028Z,25.95
2022-11-29T16:27:45.850Z,22.48
2022-11-29T16:28:59.936Z,21.27
2022-11-29T16:30:24.763Z,24.40
2022-11-29T16:31:37.731Z,25.40
2022-11-29T16:32:56.839Z,25.23
2022-11-29T16:34:28.536Z,31.50
2022-11-29T16:35:40.094Z,28.27
2022-11-29T16:37:01.125Z,26.40
2022-11-29T16:38:22.688Z,34.05
2022-11-29T16:39:35.315Z,29.77
2022-11-29T16:41:03.460Z,27.52
2022-11-29T16:42:26.224Z,21.73
2022-11-29T16:43:43.940Z,19.30
2022-11-29T16:45:02.151Z,15.05
2022-11-29T16:46:19.892Z,15.75
2022-11-29T16:47:32.651Z,13.23
2022-11-29T16:48:44.104Z,14.30
2022-11-29T16:50:01.500Z,19.63
2022-11-29T16:51:13.621Z,23.85
2022-11-29T16:52:32.493Z,19.98
2022-11-29T16:53:47.898Z,17.27
2022-11-29T16:54:59.892Z,17.63
2022-11-29T16:56:12.190Z,17.90
2022-11-29T16:57:24.217Z,15.55
2022-11-29T16:58:41.684Z,14.32
2022-11-29T17:00:11.654Z,23.73
2022-11-29T17:01:24.673Z,14.88
2022-11-29T17:02:36.352Z,15.40
2022-11-29T17:03:48.012Z,17.80
2022-11-29T17:04:59.608Z,17.67
2022-11-29T17:06:15.759Z,14.00
2022-11-29T17:07:29.902Z,19.70